Time;durP1;ratioP1;P1;durP2;ratioP2;P2;SDS_P1;SDS_P2;PMS_P1;PMS_P2;Temp;Humidity;BMP_temperature;BMP_pressure;BME280_temperature;BME280_humidity;BME280_pressure;Samples;Min_cycle;Max_cycle;Signal;HPM_P1;HPM_P2
2021/11/04 00:02:00;;;;;;;4.70;2.00;;;8.60;99.90;;;;;;5046723;28;20405;-59
2021/11/04 00:04:26;;;;;;;4.80;2.00;;;8.60;99.90;;;;;;5046659;28;20397;-58
2021/11/04 00:06:54;;;;;;;5.47;2.20;;;8.70;99.90;;;;;;5057171;28;20405;-57
2021/11/04 00:09:19;;;;;;;4.70;2.00;;;8.90;99.90;;;;;;5051470;28;20393;-57
2021/11/04 00:11:45;;;;;;;5.07;2.00;;;8.90;99.90;;;;;;5041706;28;20490;-58
2021/11/04 00:14:11;;;;;;;6.67;2.30;;;9.10;99.90;;;;;;5049260;28;20398;-56
2021/11/04 00:16:36;;;;;;;6.00;2.60;;;9.10;99.90;;;;;;5036830;28;20379;-57
2021/11/04 00:19:03;;;;;;;5.10;2.20;;;9.20;99.90;;;;;;5030722;28;20743;-57
2021/11/04 00:21:29;;;;;;;5.82;2.22;;;9.40;99.90;;;;;;5050084;28;20741;-57
2021/11/04 00:23:55;;;;;;;5.20;2.50;;;9.40;99.90;;;;;;5050991;28;20386;-57
2021/11/04 00:26:21;;;;;;;6.47;2.63;;;9.40;99.90;;;;;;5051091;28;20884;-56
2021/11/04 00:28:47;;;;;;;6.20;2.50;;;9.30;99.90;;;;;;5050759;28;20492;-59
2021/11/04 00:31:13;;;;;;;4.93;2.30;;;9.30;99.90;;;;;;5050271;28;20483;-57
2021/11/04 00:33:39;;;;;;;5.82;2.30;;;9.10;99.90;;;;;;5038698;28;20791;-57
2021/11/04 00:36:05;;;;;;;6.15;2.60;;;9.10;99.90;;;;;;5041034;28;20390;-57
2021/11/04 00:38:31;;;;;;;5.90;2.90;;;9.00;99.90;;;;;;5051425;28;20386;-59
2021/11/04 00:40:57;;;;;;;5.20;2.22;;;9.10;99.90;;;;;;5045672;28;20391;-57
2021/11/04 00:43:22;;;;;;;5.32;2.50;;;9.00;99.90;;;;;;5031078;28;20415;-56
2021/11/04 00:45:48;;;;;;;4.72;2.10;;;9.00;99.90;;;;;;5030273;28;20944;-59
2021/11/04 00:48:14;;;;;;;5.10;2.20;;;9.00;99.90;;;;;;5030292;28;20410;-57
2021/11/04 00:50:40;;;;;;;5.00;2.30;;;8.90;99.90;;;;;;5045947;28;20379;-57
2021/11/04 00:53:05;;;;;;;6.38;2.40;;;8.90;99.90;;;;;;5030385;28;20482;-57
2021/11/04 00:55:31;;;;;;;5.40;2.40;;;9.00;99.90;;;;;;5030827;28;20394;-57
2021/11/04 00:57:56;;;;;;;6.25;2.40;;;9.00;99.90;;;;;;5030268;28;20387;-57
2021/11/04 01:00:22;;;;;;;5.30;2.40;;;8.90;99.90;;;;;;5030584;28;20871;-57
2021/11/04 01:02:48;;;;;;;4.93;2.33;;;8.80;99.90;;;;;;5030209;28;20850;-58
2021/11/04 01:05:14;;;;;;;6.80;2.60;;;8.70;99.90;;;;;;5030285;28;20390;-57
2021/11/04 01:07:40;;;;;;;5.40;2.60;;;8.70;99.90;;;;;;5030401;28;20395;-57
2021/11/04 01:10:09;;;;;;;5.50;2.40;;;8.70;99.90;;;;;;5030000;28;20407;-56
2021/11/04 01:12:34;;;;;;;5.15;2.35;;;8.70;99.90;;;;;;5030251;28;20395;-57
2021/11/04 01:15:00;;;;;;;5.25;2.33;;;8.60;99.90;;;;;;5029915;28;20953;-57
2021/11/04 01:17:26;;;;;;;5.57;2.40;;;8.60;99.90;;;;;;5030513;28;20437;-57
2021/11/04 01:19:52;;;;;;;5.60;2.85;;;8.60;99.90;;;;;;5029490;28;20449;-57
2021/11/04 01:22:17;;;;;;;5.65;2.80;;;8.60;99.90;;;;;;5030509;28;20411;-56
2021/11/04 01:24:43;;;;;;;5.83;2.90;;;8.60;99.90;;;;;;5030502;28;20396;-57
2021/11/04 01:27:09;;;;;;;6.25;3.00;;;8.60;99.90;;;;;;5029589;28;20969;-57
2021/11/04 01:29:34;;;;;;;7.83;3.50;;;8.60;99.90;;;;;;5029932;28;20397;-57
2021/11/04 01:32:00;;;;;;;9.77;4.50;;;8.50;99.90;;;;;;5029510;28;20383;-57
2021/11/04 01:34:26;;;;;;;7.70;4.20;;;8.50;99.90;;;;;;5030007;28;20897;-58
2021/11/04 01:36:51;;;;;;;7.43;4.20;;;8.10;99.90;;;;;;5029236;28;20399;-57
2021/11/04 01:39:17;;;;;;;7.43;4.17;;;7.80;99.90;;;;;;5029838;28;20387;-57
2021/11/04 01:41:43;;;;;;;8.65;4.00;;;7.60;99.90;;;;;;5029688;28;20414;-56
2021/11/04 01:44:08;;;;;;;7.43;3.70;;;7.50;99.90;;;;;;5029274;28;20383;-56
2021/11/04 01:46:35;;;;;;;6.85;3.25;;;7.40;99.90;;;;;;5029576;28;20371;-56
2021/11/04 01:49:01;;;;;;;5.80;3.00;;;7.00;99.90;;;;;;5029269;28;20391;-56
2021/11/04 01:51:27;;;;;;;7.60;3.30;;;6.90;99.90;;;;;;5034210;28;20389;-57
2021/11/04 01:53:53;;;;;;;6.10;3.30;;;7.00;99.90;;;;;;5038074;28;20370;-56
2021/11/04 01:56:18;;;;;;;6.10;3.00;;;6.90;99.90;;;;;;5049796;28;20853;-56
2021/11/04 01:58:44;;;;;;;6.13;2.90;;;6.90;99.90;;;;;;5050079;28;20381;-57
2021/11/04 02:01:10;;;;;;;6.00;3.20;;;6.80;99.90;;;;;;5048715;28;20982;-57
2021/11/04 02:03:59;;;;;;;6.13;2.70;;;6.80;99.90;;;;;;5049637;28;20420;-56
2021/11/04 02:06:36;;;;;;;6.55;3.13;;;6.80;99.90;;;;;;5049374;28;20413;-57
2021/11/04 02:09:09;;;;;;;5.60;2.22;;;6.80;99.90;;;;;;5048692;28;20398;-57
2021/11/04 02:11:52;;;;;;;6.30;2.00;;;6.80;99.90;;;;;;5049348;28;20409;-56
2021/11/04 02:14:29;;;;;;;5.70;2.10;;;6.80;99.90;;;;;;5049320;28;20369;-57
2021/11/04 02:16:58;;;;;;;4.70;1.80;;;6.80;99.90;;;;;;5048412;28;20369;-57
2021/11/04 02:19:31;;;;;;;6.13;2.42;;;6.80;99.90;;;;;;5049440;28;20408;-57
2021/11/04 02:21:59;;;;;;;5.78;2.10;;;6.70;99.90;;;;;;5047432;28;20414;-57
2021/11/04 02:24:34;;;;;;;6.35;2.42;;;6.70;99.90;;;;;;5049475;28;20856;-57
2021/11/04 02:27:01;;;;;;;5.60;2.00;;;6.80;99.90;;;;;;5048612;28;20386;-57
2021/11/04 02:29:28;;;;;;;4.53;1.80;;;6.80;99.90;;;;;;5049289;28;20476;-57
2021/11/04 02:31:53;;;;;;;5.50;2.30;;;6.80;99.90;;;;;;5048495;28;20412;-57
2021/11/04 02:34:19;;;;;;;5.10;2.10;;;6.80;99.90;;;;;;5049335;28;20404;-57
2021/11/04 02:36:45;;;;;;;5.85;2.10;;;6.90;99.90;;;;;;5049088;28;20389;-57
2021/11/04 02:39:12;;;;;;;5.40;2.20;;;6.90;99.90;;;;;;5048524;28;20573;-57
2021/11/04 02:41:38;;;;;;;6.00;2.20;;;6.90;99.90;;;;;;5049046;28;20401;-56
2021/11/04 02:44:08;;;;;;;6.30;2.42;;;6.80;99.90;;;;;;5048308;28;20385;-57
2021/11/04 02:46:35;;;;;;;5.88;2.50;;;7.00;99.90;;;;;;5049275;28;20424;-56
2021/11/04 02:49:02;;;;;;;5.38;2.35;;;6.90;99.90;;;;;;5048352;28;20382;-57
2021/11/04 02:51:28;;;;;;;6.07;2.80;;;6.80;99.90;;;;;;5049030;28;20374;-57
2021/11/04 02:53:53;;;;;;;5.55;2.35;;;6.80;99.90;;;;;;5048113;28;21077;-57
2021/11/04 02:56:19;;;;;;;7.00;3.00;;;6.80;99.90;;;;;;5048714;28;20481;-57
2021/11/04 02:58:45;;;;;;;6.75;2.95;;;6.80;99.90;;;;;;5048672;28;20392;-56
2021/11/04 03:01:10;;;;;;;5.63;2.40;;;6.80;99.90;;;;;;5048626;28;20373;-57
2021/11/04 03:03:36;;;;;;;6.50;2.65;;;6.70;99.90;;;;;;5048551;28;20401;-56
2021/11/04 03:06:04;;;;;;;6.00;2.80;;;6.60;99.90;;;;;;5048382;28;20390;-56
2021/11/04 03:08:30;;;;;;;6.78;3.13;;;6.60;99.90;;;;;;5049110;28;20389;-57
2021/11/04 03:10:56;;;;;;;6.03;2.73;;;6.80;99.90;;;;;;5048713;28;20413;-56
2021/11/04 03:13:22;;;;;;;5.82;2.63;;;6.90;99.90;;;;;;5052428;28;20381;-56
2021/11/04 03:15:55;;;;;;;8.00;2.70;;;6.80;99.90;;;;;;5052320;28;20374;-56
2021/11/04 03:18:23;;;;;;;6.75;2.65;;;6.60;99.90;;;;;;5052710;28;20439;-56
2021/11/04 03:20:52;;;;;;;5.47;2.25;;;6.70;99.90;;;;;;5052519;28;20934;-56
2021/11/04 03:23:19;;;;;;;6.70;2.40;;;6.70;99.90;;;;;;5052452;28;20420;-57
2021/11/04 03:25:47;;;;;;;6.05;2.50;;;6.70;99.90;;;;;;5052774;28;20382;-56
2021/11/04 03:28:13;;;;;;;5.72;2.42;;;6.70;99.90;;;;;;5051799;28;20946;-57
2021/11/04 03:30:40;;;;;;;5.57;2.70;;;6.70;99.90;;;;;;5051134;28;20393;-57
2021/11/04 03:33:09;;;;;;;5.57;2.67;;;6.70;99.90;;;;;;5051440;28;20436;-57
2021/11/04 03:35:37;;;;;;;6.63;2.50;;;6.80;99.90;;;;;;5052270;28;20895;-56
2021/11/04 03:38:08;;;;;;;5.43;2.60;;;6.80;99.90;;;;;;5051055;28;20401;-56
2021/11/04 03:40:35;;;;;;;5.30;2.00;;;6.90;99.90;;;;;;5051293;28;20382;-56
2021/11/04 03:43:01;;;;;;;6.55;2.20;;;6.80;99.90;;;;;;5055289;28;20907;-56
2021/11/04 03:45:28;;;;;;;5.15;2.03;;;6.80;99.90;;;;;;5042420;28;20412;-56
2021/11/04 03:47:55;;;;;;;6.10;2.33;;;6.80;99.90;;;;;;5050238;28;20385;-57
2021/11/04 03:50:25;;;;;;;6.00;2.40;;;6.90;99.90;;;;;;5034926;28;20430;-56
2021/11/04 03:52:51;;;;;;;5.45;2.40;;;6.90;99.90;;;;;;5051720;28;20393;-58
2021/11/04 03:55:17;;;;;;;6.43;2.60;;;6.90;99.90;;;;;;5051464;28;20876;-57
2021/11/04 03:57:45;;;;;;;5.13;2.05;;;6.90;99.90;;;;;;5052101;28;20392;-57
2021/11/04 04:00:13;;;;;;;5.93;2.70;;;7.00;99.90;;;;;;5050830;28;20390;-57
2021/11/04 04:02:40;;;;;;;5.90;2.50;;;6.90;99.90;;;;;;5051470;28;20413;-57
2021/11/04 04:05:06;;;;;;;6.03;2.45;;;6.90;99.90;;;;;;5051085;28;20421;-57
2021/11/04 04:07:33;;;;;;;4.88;2.10;;;6.90;99.90;;;;;;5051540;28;20393;-57
2021/11/04 04:09:59;;;;;;;5.03;1.90;;;6.90;99.90;;;;;;5050477;28;20485;-57
2021/11/04 04:12:26;;;;;;;5.50;2.20;;;6.80;99.90;;;;;;5051753;28;20502;-57
2021/11/04 04:14:55;;;;;;;5.43;2.35;;;6.60;99.90;;;;;;5049724;28;20486;-58
2021/11/04 04:17:21;;;;;;;5.20;2.30;;;6.60;99.90;;;;;;5051592;28;20380;-57
2021/11/04 04:19:51;;;;;;;6.07;2.58;;;6.60;99.90;;;;;;5051585;28;20381;-57
2021/11/04 04:22:18;;;;;;;6.00;2.70;;;6.70;99.90;;;;;;5049697;28;20543;-57
2021/11/04 04:24:43;;;;;;;6.00;2.90;;;6.60;99.90;;;;;;5051133;28;20420;-57
2021/11/04 04:27:10;;;;;;;6.20;2.50;;;6.70;99.90;;;;;;5050549;28;20385;-56
2021/11/04 04:29:35;;;;;;;6.35;3.28;;;6.80;99.90;;;;;;5050404;28;20420;-56
2021/11/04 04:32:01;;;;;;;6.07;2.70;;;6.90;99.90;;;;;;5050089;28;20382;-56
2021/11/04 04:34:27;;;;;;;7.27;3.00;;;6.80;99.90;;;;;;5051179;28;20787;-55
2021/11/04 04:36:53;;;;;;;6.55;3.05;;;6.80;99.90;;;;;;5050654;28;20389;-57
2021/11/04 04:39:19;;;;;;;5.20;2.20;;;6.70;99.90;;;;;;5050484;28;20393;-55
2021/11/04 04:41:44;;;;;;;5.90;2.80;;;6.70;99.90;;;;;;5050796;28;20410;-55
2021/11/04 04:44:10;;;;;;;5.80;2.50;;;6.80;99.90;;;;;;5049711;28;21183;-56
2021/11/04 04:46:36;;;;;;;5.80;2.63;;;6.90;99.90;;;;;;5051007;28;20932;-56
2021/11/04 04:49:02;;;;;;;5.70;2.60;;;6.90;99.90;;;;;;5049982;28;20374;-56
2021/11/04 04:51:27;;;;;;;5.90;2.80;;;7.10;99.90;;;;;;5050652;28;20464;-56
2021/11/04 04:53:53;;;;;;;5.70;2.60;;;7.00;99.90;;;;;;5050032;28;20481;-57
2021/11/04 04:56:19;;;;;;;6.27;2.83;;;6.80;99.90;;;;;;5050377;28;20386;-56
2021/11/04 04:58:44;;;;;;;5.88;2.53;;;6.70;99.90;;;;;;5050785;28;20818;-55
2021/11/04 05:01:10;;;;;;;5.10;2.20;;;6.50;99.90;;;;;;5050041;28;20566;-56
2021/11/04 05:03:36;;;;;;;6.20;2.30;;;6.60;99.90;;;;;;5050082;28;20923;-54
2021/11/04 05:06:01;;;;;;;4.73;1.90;;;6.50;99.90;;;;;;5048979;28;20842;-56
2021/11/04 05:08:27;;;;;;;6.28;2.25;;;6.60;99.90;;;;;;5049807;28;20393;-58
2021/11/04 05:10:52;;;;;;;5.30;2.40;;;6.50;99.90;;;;;;5049731;28;20828;-57
2021/11/04 05:13:18;;;;;;;4.47;2.00;;;6.50;99.90;;;;;;5048522;28;20949;-55
2021/11/04 05:15:44;;;;;;;4.77;1.80;;;6.50;99.90;;;;;;5049861;28;20457;-56
2021/11/04 05:18:09;;;;;;;4.80;2.20;;;6.50;99.90;;;;;;5049847;28;20374;-56
2021/11/04 05:20:37;;;;;;;5.67;2.20;;;6.70;99.90;;;;;;5042159;28;20400;-56
2021/11/04 05:23:03;;;;;;;5.30;2.20;;;6.00;99.90;;;;;;5032963;28;20517;-56
2021/11/04 05:25:29;;;;;;;5.35;2.10;;;6.70;99.90;;;;;;5035630;28;20945;-55
2021/11/04 05:27:55;;;;;;;6.20;2.33;;;6.80;99.90;;;;;;5042412;28;20440;-57
2021/11/04 05:30:21;;;;;;;5.80;2.03;;;6.80;99.90;;;;;;5048879;28;20749;-57
2021/11/04 05:32:47;;;;;;;5.13;2.30;;;6.80;99.90;;;;;;5036283;28;20398;-56
2021/11/04 05:35:17;;;;;;;5.40;2.30;;;6.80;99.90;;;;;;5034982;28;20938;-56
2021/11/04 05:37:43;;;;;;;5.50;2.30;;;6.80;99.90;;;;;;5031029;28;20406;-56
2021/11/04 05:40:09;;;;;;;5.03;2.03;;;6.80;99.90;;;;;;5038724;28;20820;-56
2021/11/04 05:42:34;;;;;;;5.33;2.17;;;6.80;99.90;;;;;;5043835;28;20890;-56
2021/11/04 05:45:00;;;;;;;4.95;2.08;;;6.80;99.90;;;;;;5034304;28;20398;-56
2021/11/04 05:47:26;;;;;;;5.50;2.50;;;6.80;99.90;;;;;;5028625;28;20383;-56
2021/11/04 05:49:52;;;;;;;5.40;2.10;;;6.80;99.90;;;;;;5027056;28;20436;-57
2021/11/04 05:52:18;;;;;;;5.07;2.17;;;5.40;99.90;;;;;;5033681;28;20486;-57
2021/11/04 05:54:43;;;;;;;6.80;2.83;;;6.70;99.90;;;;;;5028822;28;20802;-56
2021/11/04 05:57:09;;;;;;;5.33;2.20;;;6.70;99.90;;;;;;5028285;28;20457;-56
2021/11/04 05:59:35;;;;;;;5.38;2.60;;;6.80;99.90;;;;;;5039329;28;20403;-56
2021/11/04 06:02:00;;;;;;;5.70;2.70;;;6.90;99.90;;;;;;5035771;28;20415;-56
2021/11/04 06:04:32;;;;;;;5.20;2.30;;;7.10;99.90;;;;;;5036601;28;20411;-56
2021/11/04 06:06:57;;;;;;;5.70;2.70;;;7.10;99.90;;;;;;5026498;28;20407;-58
2021/11/04 06:09:23;;;;;;;5.32;2.60;;;7.10;99.90;;;;;;5029020;28;20391;-55
2021/11/04 06:11:50;;;;;;;5.30;2.50;;;7.00;99.90;;;;;;5028666;28;20940;-55
2021/11/04 06:14:16;;;;;;;6.05;2.80;;;7.10;99.90;;;;;;5028552;28;20385;-56
2021/11/04 06:16:41;;;;;;;5.70;2.47;;;7.10;99.90;;;;;;5029391;28;20379;-60
2021/11/04 06:19:07;;;;;;;5.67;2.50;;;7.10;99.90;;;;;;5027993;28;20445;-56
2021/11/04 06:21:33;;;;;;;6.20;2.25;;;7.10;99.90;;;;;;5029190;28;20383;-56
2021/11/04 06:23:59;;;;;;;6.17;2.50;;;7.10;99.90;;;;;;5060401;28;20896;-56
2021/11/04 06:26:24;;;;;;;5.00;1.90;;;7.10;99.90;;;;;;5028696;28;20387;-56
2021/11/04 06:28:50;;;;;;;5.20;2.20;;;7.20;99.90;;;;;;5036740;28;20943;-56
2021/11/04 06:31:15;;;;;;;5.20;1.90;;;7.20;99.90;;;;;;5038519;28;20375;-56
2021/11/04 06:33:41;;;;;;;4.57;1.70;;;7.20;99.90;;;;;;5028908;28;20390;-56
2021/11/04 06:36:07;;;;;;;5.47;2.00;;;7.20;99.90;;;;;;5045708;28;20842;-56
2021/11/04 06:38:34;;;;;;;8.10;2.20;;;7.10;99.90;;;;;;5048663;28;20396;-56
2021/11/04 06:41:00;;;;;;;5.70;2.00;;;7.20;99.90;;;;;;5048096;28;20447;-56
2021/11/04 06:43:27;;;;;;;5.10;2.20;;;7.20;99.90;;;;;;5049206;28;20417;-55
2021/11/04 06:45:52;;;;;;;5.50;2.00;;;7.20;99.90;;;;;;5049496;28;20472;-56
2021/11/04 06:48:31;;;;;;;5.97;2.30;;;7.20;99.90;;;;;;5040394;28;20545;-55
2021/11/04 06:50:59;;;;;;;5.45;2.10;;;7.20;99.90;;;;;;5044755;28;20726;-57
2021/11/04 06:53:26;;;;;;;6.25;2.13;;;7.20;99.90;;;;;;5051282;28;20389;-55
2021/11/04 06:55:54;;;;;;;6.10;2.40;;;7.40;99.90;;;;;;5052068;28;20380;-56
2021/11/04 06:58:29;;;;;;;5.03;2.20;;;7.30;99.90;;;;;;5031848;28;20426;-55
2021/11/04 07:00:57;;;;;;;5.32;2.28;;;7.20;99.90;;;;;;5032596;28;20389;-57
2021/11/04 07:03:29;;;;;;;6.38;2.38;;;7.20;99.90;;;;;;5038474;28;20411;-55
2021/11/04 07:06:06;;;;;;;5.20;2.10;;;7.10;99.90;;;;;;5045351;28;20472;-57
2021/11/04 07:08:40;;;;;;;5.40;2.30;;;7.10;99.90;;;;;;5049233;28;20399;-54
2021/11/04 07:11:06;;;;;;;5.40;2.20;;;6.90;99.90;;;;;;5031657;28;20505;-55
2021/11/04 07:13:32;;;;;;;4.67;1.80;;;7.00;99.90;;;;;;5032441;28;20482;-55
2021/11/04 07:15:59;;;;;;;4.70;1.70;;;6.90;99.90;;;;;;5031941;28;20379;-57
2021/11/04 07:18:26;;;;;;;4.55;1.90;;;6.90;99.90;;;;;;5031929;28;20371;-56
2021/11/04 07:21:10;;;;;;;4.60;1.75;;;6.90;99.90;;;;;;5035735;28;20800;-56
2021/11/04 07:23:46;;;;;;;6.50;2.03;;;7.00;99.90;;;;;;5048921;28;20860;-56
2021/11/04 07:26:12;;;;;;;4.68;1.67;;;7.00;99.90;;;;;;5033547;28;20862;-56
2021/11/04 07:28:39;;;;;;;4.97;2.00;;;6.80;99.90;;;;;;5038476;28;20400;-55
2021/11/04 07:31:09;;;;;;;4.00;1.50;;;6.80;99.90;;;;;;5049663;28;20958;-56
2021/11/04 07:33:36;;;;;;;4.75;1.95;;;6.80;99.90;;;;;;5051649;28;20382;-56
2021/11/04 07:36:03;;;;;;;4.70;1.63;;;6.90;99.90;;;;;;5051098;28;20522;-56
2021/11/04 07:38:32;;;;;;;4.80;1.98;;;7.10;99.90;;;;;;5051929;28;20404;-56
2021/11/04 07:40:57;;;;;;;4.85;2.00;;;7.20;99.90;;;;;;5050964;28;20802;-58
2021/11/04 07:43:24;;;;;;;4.85;2.08;;;7.10;99.90;;;;;;5051252;28;20413;-56
2021/11/04 07:45:50;;;;;;;4.88;2.10;;;6.90;99.90;;;;;;5051675;28;20433;-56
2021/11/04 07:48:15;;;;;;;5.30;2.20;;;6.80;99.90;;;;;;5051078;28;20417;-56
2021/11/04 07:50:41;;;;;;;5.37;2.20;;;6.90;99.90;;;;;;5050866;28;20955;-56
2021/11/04 07:53:07;;;;;;;5.05;1.90;;;6.90;99.90;;;;;;5041216;28;20466;-56
2021/11/04 07:55:32;;;;;;;5.60;2.30;;;6.90;99.90;;;;;;5040735;28;20380;-55
2021/11/04 07:57:58;;;;;;;5.93;2.78;;;6.90;99.90;;;;;;5031018;28;20478;-57
2021/11/04 08:00:28;;;;;;;5.80;2.67;;;7.00;99.90;;;;;;5031840;28;20862;-55
2021/11/04 08:02:54;;;;;;;5.80;2.78;;;7.10;99.90;;;;;;5031692;28;20403;-55
2021/11/04 08:05:20;;;;;;;6.00;2.38;;;7.10;99.90;;;;;;5030463;28;20890;-55
2021/11/04 08:07:46;;;;;;;5.10;2.33;;;7.10;99.90;;;;;;5031697;28;20395;-56
2021/11/04 08:10:14;;;;;;;6.25;2.70;;;6.90;99.90;;;;;;5030275;28;20820;-55
2021/11/04 08:12:40;;;;;;;7.53;3.05;;;7.00;99.90;;;;;;5031183;28;20429;-55
2021/11/04 08:15:11;;;;;;;6.17;3.00;;;7.00;99.90;;;;;;5045023;28;20393;-55
2021/11/04 08:17:37;;;;;;;6.72;3.60;;;7.00;99.90;;;;;;5050844;28;20372;-55
2021/11/04 08:20:08;;;;;;;7.60;3.60;;;7.00;99.90;;;;;;5050582;28;20413;-57
2021/11/04 08:22:34;;;;;;;8.52;4.10;;;6.80;99.90;;;;;;5050555;28;20988;-56
2021/11/04 08:25:01;;;;;;;8.67;4.70;;;6.90;99.90;;;;;;5050348;28;20831;-57
2021/11/04 08:27:27;;;;;;;10.07;4.78;;;7.00;99.90;;;;;;5048696;28;20397;-56
2021/11/04 08:29:53;;;;;;;8.27;4.07;;;6.90;99.90;;;;;;5049658;28;20397;-55
2021/11/04 08:32:19;;;;;;;8.13;4.00;;;6.90;99.90;;;;;;5049175;28;20382;-57
2021/11/04 08:34:44;;;;;;;8.32;4.50;;;6.90;99.90;;;;;;5050044;28;20935;-57
2021/11/04 08:37:11;;;;;;;7.80;3.88;;;6.80;99.90;;;;;;5049547;28;20529;-56
2021/11/04 08:39:37;;;;;;;9.00;4.10;;;6.90;99.90;;;;;;5050252;28;20944;-56
2021/11/04 08:42:04;;;;;;;8.82;4.25;;;6.90;99.90;;;;;;5046195;28;20487;-57
2021/11/04 08:44:30;;;;;;;7.90;4.10;;;6.90;99.90;;;;;;5049770;28;20457;-57
2021/11/04 08:46:56;;;;;;;7.50;3.40;;;6.80;99.90;;;;;;5049650;28;20385;-59
2021/11/04 08:49:24;;;;;;;8.07;3.90;;;6.70;99.90;;;;;;5049623;28;20382;-58
2021/11/04 08:51:53;;;;;;;8.50;4.32;;;6.80;99.90;;;;;;5049882;28;20439;-57
2021/11/04 08:54:19;;;;;;;7.25;3.60;;;6.70;99.90;;;;;;5049299;28;20460;-57
2021/11/04 08:56:45;;;;;;;8.48;3.00;;;6.70;99.90;;;;;;5050121;28;20749;-57
2021/11/04 08:59:10;;;;;;;7.10;3.40;;;6.50;99.90;;;;;;5049313;28;20381;-57
2021/11/04 09:01:37;;;;;;;7.00;3.20;;;6.60;99.90;;;;;;5049267;28;20414;-57
2021/11/04 09:04:03;;;;;;;5.80;2.70;;;6.80;99.90;;;;;;5048975;28;20389;-57
2021/11/04 09:06:29;;;;;;;6.18;3.30;;;6.80;99.90;;;;;;5049545;28;20471;-56
2021/11/04 09:08:54;;;;;;;5.30;2.27;;;6.80;99.90;;;;;;5048891;28;20472;-56
2021/11/04 09:11:20;;;;;;;4.93;2.00;;;6.80;99.90;;;;;;5046780;28;20425;-59
2021/11/04 09:13:46;;;;;;;5.00;2.10;;;6.80;99.90;;;;;;5032547;28;20398;-56
2021/11/04 09:16:11;;;;;;;7.30;2.78;;;6.90;99.90;;;;;;5044106;28;20388;-56
2021/11/04 09:18:37;;;;;;;6.35;2.45;;;7.00;99.90;;;;;;5044570;28;20401;-57
2021/11/04 09:21:03;;;;;;;5.37;2.10;;;7.20;99.90;;;;;;5046982;28;20386;-57
2021/11/04 09:23:29;;;;;;;5.40;2.40;;;7.10;99.90;;;;;;5049322;28;20409;-57
2021/11/04 09:25:54;;;;;;;5.60;2.20;;;7.20;99.90;;;;;;5050298;28;20822;-56
2021/11/04 09:28:20;;;;;;;4.80;1.90;;;7.20;99.90;;;;;;5049052;28;20388;-57
2021/11/04 09:30:46;;;;;;;4.65;1.80;;;7.10;99.90;;;;;;5049505;28;20456;-56
2021/11/04 09:33:14;;;;;;;4.30;1.70;;;7.10;99.90;;;;;;5049174;28;20419;-56
2021/11/04 09:35:39;;;;;;;4.78;1.60;;;7.00;99.90;;;;;;5049636;28;20921;-56
2021/11/04 09:38:06;;;;;;;4.75;1.67;;;7.00;99.90;;;;;;5049213;28;20548;-57
2021/11/04 09:40:32;;;;;;;4.43;1.83;;;7.10;99.90;;;;;;5049085;28;20386;-57
2021/11/04 09:42:57;;;;;;;6.07;2.28;;;7.10;99.90;;;;;;5048408;28;20409;-58
2021/11/04 09:45:28;;;;;;;4.60;1.73;;;6.30;99.90;;;;;;5049204;28;20397;-57
2021/11/04 09:47:54;;;;;;;5.25;1.80;;;6.10;99.90;;;;;;5049595;28;20912;-57
2021/11/04 09:50:20;;;;;;;4.93;1.77;;;7.40;99.90;;;;;;5048141;28;21065;-57
2021/11/04 09:52:49;;;;;;;4.47;1.80;;;7.20;99.90;;;;;;5048467;28;20385;-57
2021/11/04 09:55:19;;;;;;;4.78;1.90;;;7.10;99.90;;;;;;5047922;28;20466;-57
2021/11/04 09:57:50;;;;;;;4.70;2.00;;;7.40;99.90;;;;;;5052293;28;20484;-56
2021/11/04 10:00:18;;;;;;;5.57;1.60;;;7.20;99.90;;;;;;5065922;28;20890;-56
2021/11/04 10:02:45;;;;;;;6.00;2.50;;;7.30;99.90;;;;;;5055663;28;20411;-57
2021/11/04 10:05:14;;;;;;;5.20;2.10;;;7.30;99.90;;;;;;5050695;28;20471;-56
2021/11/04 10:07:48;;;;;;;4.93;2.20;;;7.20;99.90;;;;;;5050723;28;20383;-56
2021/11/04 10:10:15;;;;;;;5.95;2.60;;;7.40;99.90;;;;;;5047517;28;20757;-56
2021/11/04 10:13:05;;;;;;;6.82;2.80;;;7.50;99.90;;;;;;5055744;28;20388;-57
2021/11/04 10:15:36;;;;;;;9.13;3.28;;;7.50;99.90;;;;;;5052461;28;20392;-56
2021/11/04 10:18:14;;;;;;;5.63;2.75;;;7.30;99.90;;;;;;5052371;28;20444;-58
2021/11/04 10:20:40;;;;;;;7.00;3.00;;;7.20;99.90;;;;;;5052303;28;20464;-56
2021/11/04 10:23:12;;;;;;;8.30;4.00;;;7.10;99.90;;;;;;5051288;28;20412;-56
2021/11/04 10:25:39;;;;;;;10.75;4.30;;;7.10;99.90;;;;;;5057177;28;20392;-56
2021/11/04 10:28:28;;;;;;;10.90;5.10;;;7.10;99.90;;;;;;5053883;28;20385;-56
2021/11/04 10:30:56;;;;;;;14.73;6.93;;;7.20;99.90;;;;;;5059089;28;20388;-55
2021/11/04 10:33:25;;;;;;;16.48;8.50;;;7.10;99.90;;;;;;5053654;28;20932;-59
2021/11/04 10:35:59;;;;;;;17.67;8.57;;;7.10;99.90;;;;;;5067465;28;20453;-59
2021/11/04 10:38:35;;;;;;;19.25;9.80;;;7.10;99.90;;;;;;5060827;28;20407;-58
2021/11/04 10:41:03;;;;;;;22.13;11.48;;;7.00;99.90;;;;;;5062019;28;20388;-60
2021/11/04 10:43:29;;;;;;;23.45;12.32;;;7.00;99.90;;;;;;5063223;28;20464;-56
2021/11/04 10:46:12;;;;;;;18.35;10.55;;;7.10;99.90;;;;;;5052564;28;20401;-56
2021/11/04 10:48:46;;;;;;;24.05;11.63;;;7.10;99.90;;;;;;5063486;28;20395;-56
2021/11/04 10:51:17;;;;;;;24.50;12.90;;;7.10;99.90;;;;;;5062292;28;20807;-56
2021/11/04 10:53:43;;;;;;;25.52;12.57;;;7.10;99.90;;;;;;5048865;28;20520;-58
2021/11/04 10:56:20;;;;;;;21.15;10.80;;;7.20;99.90;;;;;;5049673;28;20374;-56
2021/11/04 10:58:52;;;;;;;23.10;11.82;;;7.10;99.90;;;;;;5054626;28;20388;-56
2021/11/04 11:01:33;;;;;;;21.42;11.65;;;7.20;99.90;;;;;;5046983;28;20401;-55
2021/11/04 11:04:03;;;;;;;21.40;12.35;;;7.20;99.90;;;;;;5048841;28;20406;-56
2021/11/04 11:06:32;;;;;;;21.63;11.55;;;7.20;99.90;;;;;;5045406;28;20454;-56
2021/11/04 11:09:00;;;;;;;21.40;11.53;;;7.10;99.90;;;;;;5045322;28;20409;-56
2021/11/04 11:11:27;;;;;;;20.27;10.90;;;7.20;99.90;;;;;;5045447;28;20413;-58
2021/11/04 11:13:52;;;;;;;21.50;11.88;;;7.10;99.90;;;;;;5049609;28;20468;-56
2021/11/04 11:16:18;;;;;;;22.90;12.13;;;7.20;99.90;;;;;;5042623;28;20813;-56
2021/11/04 11:18:44;;;;;;;20.60;11.15;;;7.20;99.90;;;;;;5045754;28;20478;-56
2021/11/04 11:21:11;;;;;;;20.45;10.93;;;7.30;99.90;;;;;;5046512;28;20507;-55
2021/11/04 11:23:37;;;;;;;19.83;10.13;;;6.80;99.90;;;;;;5042898;28;20408;-56
2021/11/04 11:26:05;;;;;;;18.70;10.10;;;7.10;99.90;;;;;;5049086;28;20392;-59
2021/11/04 11:28:37;;;;;;;20.20;10.77;;;6.90;99.90;;;;;;5050788;28;20381;-58
2021/11/04 11:31:11;;;;;;;21.90;10.88;;;7.00;99.90;;;;;;5078745;28;20930;-59
2021/11/04 11:33:43;;;;;;;18.80;10.50;;;7.10;99.90;;;;;;5045139;28;20397;-55
2021/11/04 11:36:10;;;;;;;20.77;10.50;;;7.00;99.90;;;;;;5046315;28;20435;-55
2021/11/04 11:39:05;;;;;;;19.38;10.25;;;7.20;99.90;;;;;;5051066;28;21168;-55
2021/11/04 11:41:51;;;;;;;19.63;11.33;;;7.20;99.90;;;;;;5052276;28;20424;-57
2021/11/04 11:44:35;;;;;;;22.42;11.55;;;7.10;99.90;;;;;;5053286;28;20997;-57
2021/11/04 11:47:05;;;;;;;19.38;11.10;;;7.20;99.90;;;;;;5049937;28;20386;-57
2021/11/04 11:49:33;;;;;;;20.45;10.88;;;7.10;99.90;;;;;;5056308;28;20381;-57
2021/11/04 11:51:59;;;;;;;19.63;10.63;;;7.00;99.90;;;;;;5045597;28;20463;-58
2021/11/04 11:54:52;;;;;;;20.53;11.90;;;7.00;99.90;;;;;;5051252;28;20386;-58
2021/11/04 11:57:18;;;;;;;23.30;12.27;;;7.20;99.90;;;;;;5041427;28;20918;-57
2021/11/04 11:59:52;;;;;;;20.02;11.13;;;7.10;99.90;;;;;;5050640;28;20385;-57
2021/11/04 12:02:38;;;;;;;20.95;11.80;;;7.10;99.90;;;;;;5047618;28;20500;-57
2021/11/04 12:05:22;;;;;;;25.40;13.48;;;7.10;99.90;;;;;;5045263;28;21145;-59
2021/11/04 12:07:49;;;;;;;22.85;12.07;;;7.10;99.90;;;;;;5051990;28;20936;-57
2021/11/04 12:10:30;;;;;;;22.48;12.43;;;7.10;99.90;;;;;;5047586;28;20907;-57
2021/11/04 12:12:56;;;;;;;21.85;12.32;;;7.00;99.90;;;;;;5044993;28;20417;-57
2021/11/04 12:15:22;;;;;;;20.50;10.70;;;7.10;99.90;;;;;;5047040;28;20405;-57
2021/11/04 12:18:14;;;;;;;22.15;11.95;;;7.00;99.90;;;;;;5040951;28;21454;-57
2021/11/04 12:20:56;;;;;;;20.88;11.30;;;7.10;99.90;;;;;;5051237;28;20485;-56
2021/11/04 12:23:36;;;;;;;20.67;10.27;;;7.10;99.90;;;;;;5048010;28;20426;-57
2021/11/04 12:26:03;;;;;;;18.30;9.88;;;7.10;99.90;;;;;;5056147;28;20444;-58
2021/11/04 12:28:48;;;;;;;18.65;10.73;;;7.20;99.90;;;;;;5050448;28;20490;-56
2021/11/04 12:31:23;;;;;;;16.73;9.80;;;7.40;99.90;;;;;;5046906;28;20401;-55
2021/11/04 12:33:54;;;;;;;16.50;9.50;;;7.40;99.90;;;;;;5053345;28;20396;-55
2021/11/04 12:36:40;;;;;;;17.77;8.95;;;7.30;99.90;;;;;;5050630;28;20420;-58
2021/11/04 12:39:17;;;;;;;16.60;9.13;;;7.30;99.90;;;;;;5048486;28;20409;-58
2021/11/04 12:41:57;;;;;;;18.25;9.55;;;7.50;99.90;;;;;;5049473;28;20429;-56
2021/11/04 12:44:25;;;;;;;16.48;8.00;;;7.50;99.90;;;;;;5046731;28;20393;-56
2021/11/04 12:46:51;;;;;;;14.00;7.93;;;7.50;99.90;;;;;;5051661;28;20434;-56
2021/11/04 12:49:28;;;;;;;14.88;8.45;;;7.50;99.90;;;;;;5052088;28;20401;-59
2021/11/04 12:51:55;;;;;;;13.80;7.70;;;7.60;99.90;;;;;;5051084;28;20420;-58
2021/11/04 12:54:30;;;;;;;17.52;9.77;;;7.50;99.90;;;;;;5053233;28;20420;-56
2021/11/04 12:57:00;;;;;;;16.17;9.17;;;7.60;99.90;;;;;;5044325;28;20413;-57
2021/11/04 12:59:49;;;;;;;15.75;9.10;;;8.00;99.90;;;;;;5049914;28;20393;-56